createdAt,value
2018-02-22T00:00:16.748Z,10.80
2018-02-22T00:02:45.295Z,10.90
2018-02-22T00:05:14.614Z,11.23
2018-02-22T00:07:43.231Z,10.07
2018-02-22T00:10:11.786Z,10.07
2018-02-22T00:12:40.329Z,10.80
2018-02-22T00:15:09.703Z,9.63
2018-02-22T00:17:38.253Z,10.87
2018-02-22T00:20:06.812Z,10.03
2018-02-22T00:22:35.505Z,9.27
2018-02-22T00:25:04.056Z,9.20
2018-02-22T00:27:32.612Z,10.13
2018-02-22T00:30:01.218Z,8.60
2018-02-22T00:32:30.548Z,9.33
2018-02-22T00:34:59.860Z,8.83
2018-02-22T00:37:28.680Z,9.07
2018-02-22T00:39:57.224Z,8.90
2018-02-22T00:42:25.780Z,8.70
2018-02-22T00:44:54.413Z,8.37
2018-02-22T00:47:23.320Z,9.30
2018-02-22T00:49:51.868Z,8.90
2018-02-22T00:52:20.697Z,7.53
2018-02-22T00:54:49.304Z,6.97
2018-02-22T00:57:17.861Z,8.40
2018-02-22T00:59:46.648Z,8.30
2018-02-22T01:02:15.965Z,7.57
2018-02-22T01:04:44.528Z,8.40
2018-02-22T01:07:13.316Z,8.57
2018-02-22T01:09:41.868Z,8.40
2018-02-22T01:12:10.416Z,8.27
2018-02-22T01:14:39.346Z,9.23
2018-02-22T01:17:07.901Z,8.23
2018-02-22T01:19:37.216Z,8.00
2018-02-22T01:22:05.910Z,8.00
2018-02-22T01:24:34.461Z,7.70
2018-02-22T01:27:03.784Z,7.93
2018-02-22T01:29:33.236Z,9.03
2018-02-22T01:32:02.555Z,8.27
2018-02-22T01:34:31.117Z,7.47
2018-02-22T01:37:00.004Z,8.83
2018-02-22T01:39:28.552Z,10.83
2018-02-22T01:41:57.105Z,8.40
2018-02-22T01:44:25.704Z,7.73
2018-02-22T01:46:55.021Z,6.40
2018-02-22T01:49:23.568Z,7.17
2018-02-22T01:51:52.168Z,6.57
2018-02-22T01:54:21.492Z,6.50
2018-02-22T01:56:50.043Z,5.93
2018-02-22T01:59:18.892Z,6.23
2018-02-22T02:01:47.441Z,6.00
2018-02-22T02:04:15.984Z,6.20
2018-02-22T02:06:44.584Z,6.13
2018-02-22T02:09:13.891Z,5.63
2018-02-22T02:11:43.202Z,5.53
2018-02-22T02:14:12.038Z,5.50
2018-02-22T02:16:40.592Z,6.03
2018-02-22T02:19:09.141Z,5.73
2018-02-22T02:21:38.525Z,5.83
2018-02-22T02:24:07.082Z,5.77
2018-02-22T02:26:35.626Z,5.33
2018-02-22T02:29:04.229Z,4.90
2018-02-22T02:31:32.818Z,5.53
2018-02-22T02:34:01.356Z,5.20
2018-02-22T02:36:30.824Z,5.20
2018-02-22T02:39:00.129Z,5.80
2018-02-22T02:41:28.668Z,6.00
2018-02-22T02:43:57.364Z,6.03
2018-02-22T02:46:25.903Z,5.37
2018-02-22T02:48:54.471Z,4.77
2018-02-22T02:51:23.059Z,5.07
2018-02-22T02:53:51.605Z,4.70
2018-02-22T02:56:20.165Z,5.20
2018-02-22T02:58:49.087Z,4.33
2018-02-22T03:04:19.247Z,4.20
2018-02-22T03:06:56.962Z,4.90
2018-02-22T03:09:25.926Z,5.00
2018-02-22T03:11:54.469Z,5.43
2018-02-22T03:14:23.012Z,4.80
2018-02-22T03:16:51.608Z,4.00
2018-02-22T03:19:20.165Z,4.73
2018-02-22T03:21:48.704Z,4.60
2018-02-22T03:24:18.068Z,4.90
2018-02-22T03:26:46.607Z,5.00
2018-02-22T03:29:15.153Z,5.50
2018-02-22T03:31:44.514Z,4.70
2018-02-22T03:34:13.064Z,4.57
2018-02-22T03:36:41.600Z,5.50
2018-02-22T03:39:10.364Z,4.70
2018-02-22T03:41:38.909Z,4.40
2018-02-22T03:44:07.476Z,3.73
2018-02-22T03:46:37.037Z,4.70
2018-02-22T03:49:05.577Z,4.60
2018-02-22T03:51:34.885Z,3.73
2018-02-22T03:54:03.708Z,2.53
2018-02-22T03:56:32.248Z,3.00
2018-02-22T03:59:01.557Z,2.70
2018-02-22T04:01:30.368Z,2.80
2018-02-22T04:03:58.908Z,2.77
2018-02-22T04:06:28.223Z,3.40
2018-02-22T04:08:56.918Z,3.10
2018-02-22T04:11:25.460Z,2.93
2018-02-22T04:13:54.008Z,2.80
2018-02-22T04:16:22.596Z,2.80
2018-02-22T04:18:51.140Z,3.10
2018-02-22T04:21:19.708Z,2.80
2018-02-22T04:23:49.269Z,2.67
2018-02-22T04:26:17.812Z,3.00
2018-02-22T04:28:46.348Z,3.00
2018-02-22T04:31:14.939Z,2.67
2018-02-22T04:33:43.480Z,2.93
2018-02-22T04:36:12.026Z,2.60
2018-02-22T04:38:41.591Z,2.37
2018-02-22T04:41:10.181Z,2.83
2018-02-22T04:43:38.732Z,2.40
2018-02-22T04:46:07.650Z,2.10
2018-02-22T04:48:36.189Z,2.60
2018-02-22T04:51:04.729Z,2.00
2018-02-22T04:53:33.497Z,2.50
2018-02-22T04:56:02.036Z,3.37
2018-02-22T04:58:30.616Z,3.10
2018-02-22T05:00:59.971Z,3.63
2018-02-22T05:03:28.508Z,4.37
2018-02-22T05:05:57.814Z,6.30
2018-02-22T05:08:26.633Z,6.23
2018-02-22T05:10:55.184Z,10.33
2018-02-22T05:13:23.724Z,6.50
2018-02-22T05:15:52.498Z,4.90
2018-02-22T05:18:21.036Z,4.70
2018-02-22T05:20:49.576Z,4.53
2018-02-22T05:23:18.167Z,3.53
2018-02-22T05:25:46.708Z,3.20
2018-02-22T05:28:15.256Z,2.70
2018-02-22T05:30:44.764Z,4.37
2018-02-22T05:33:14.096Z,6.67
2018-02-22T05:35:42.633Z,4.80
2018-02-22T05:38:11.472Z,6.93
2018-02-22T05:40:40.021Z,13.23
2018-02-22T05:43:09.337Z,10.03
2018-02-22T05:45:37.953Z,10.80
2018-02-22T05:48:06.501Z,12.93
2018-02-22T05:50:35.048Z,15.03
2018-02-22T05:53:04.009Z,15.97
2018-02-22T05:55:32.552Z,16.33
2018-02-22T05:58:01.103Z,17.23
2018-02-22T06:00:29.696Z,17.30
2018-02-22T06:02:59.012Z,15.83
2018-02-22T06:05:28.324Z,8.07
2018-02-22T06:07:56.937Z,6.77
2018-02-22T06:10:25.481Z,6.43
2018-02-22T06:12:54.793Z,4.30
2018-02-22T06:15:23.608Z,2.63
2018-02-22T06:17:52.145Z,1.57
2018-02-22T06:20:21.452Z,1.40
2018-02-22T06:22:51.005Z,1.80
2018-02-22T06:25:19.552Z,2.40
2018-02-22T06:27:48.097Z,5.17
2018-02-22T06:30:17.063Z,7.47
2018-02-22T06:32:45.628Z,7.07
2018-02-22T06:35:14.177Z,10.87
2018-02-22T06:37:43.541Z,6.47
2018-02-22T06:40:12.089Z,1.83
2018-02-22T06:42:40.633Z,1.33
2018-02-22T06:45:10.090Z,1.73
2018-02-22T06:47:38.631Z,0.90
2018-02-22T06:50:07.941Z,1.00
2018-02-22T06:52:36.525Z,1.10
2018-02-22T06:55:05.839Z,1.10
2018-02-22T06:57:34.385Z,3.40
2018-02-22T07:00:03.900Z,2.07
2018-02-22T07:02:33.225Z,1.93
2018-02-22T07:05:01.848Z,2.10
2018-02-22T07:07:30.441Z,5.47
2018-02-22T07:09:58.996Z,3.93
2018-02-22T07:12:27.545Z,8.03
2018-02-22T07:14:57.095Z,3.20
2018-02-22T07:17:25.645Z,5.30
2018-02-22T07:19:54.189Z,2.90
2018-02-22T07:22:22.797Z,6.77
2018-02-22T07:24:51.344Z,5.73
2018-02-22T07:27:19.954Z,10.50
2018-02-22T07:29:49.321Z,6.37
2018-02-22T07:32:17.870Z,10.37
2018-02-22T07:34:46.417Z,9.90
2018-02-22T07:37:15.785Z,14.10
2018-02-22T07:39:44.337Z,15.90
2018-02-22T07:42:12.904Z,13.57
2018-02-22T07:44:41.732Z,8.67
2018-02-22T07:47:10.280Z,6.83
2018-02-22T07:49:38.833Z,5.20
2018-02-22T07:52:08.207Z,9.07
2018-02-22T07:54:36.752Z,4.07
2018-02-22T07:57:05.303Z,4.13
2018-02-22T07:59:34.981Z,5.50
2018-02-22T08:02:03.528Z,1.80
2018-02-22T08:04:32.087Z,8.20
2018-02-22T08:07:01.447Z,3.40
2018-02-22T08:09:29.993Z,3.13
2018-02-22T08:11:58.573Z,3.57
2018-02-22T08:14:27.267Z,2.90
2018-02-22T08:16:55.808Z,3.93
2018-02-22T08:19:24.368Z,3.03
2018-02-22T08:21:52.971Z,3.60
2018-02-22T08:24:21.537Z,4.20
2018-02-22T08:26:50.848Z,4.20
2018-02-22T08:29:20.116Z,5.70
2018-02-22T08:31:48.664Z,5.40
2018-02-22T08:34:17.977Z,4.63
2018-02-22T08:36:46.902Z,5.33
2018-02-22T08:39:16.489Z,5.67
2018-02-22T08:41:45.026Z,6.20
2018-02-22T08:44:14.393Z,4.97
2018-02-22T08:46:42.935Z,3.47
2018-02-22T08:49:11.484Z,20.27
2018-02-22T08:51:40.085Z,17.53
2018-02-22T08:54:09.400Z,6.57
2018-02-22T08:56:37.969Z,3.20
2018-02-22T08:59:07.340Z,3.40
2018-02-22T09:01:36.656Z,10.20
2018-02-22T09:04:05.220Z,7.77
2018-02-22T09:06:33.817Z,5.67
2018-02-22T09:09:02.361Z,4.63
2018-02-22T09:11:30.910Z,4.80
2018-02-22T09:14:00.416Z,3.60
2018-02-22T09:16:29.729Z,6.93
2018-02-22T09:18:58.272Z,6.53
2018-02-22T09:21:26.866Z,8.60
2018-02-22T09:23:55.414Z,4.67
2018-02-22T09:26:23.961Z,10.93
2018-02-22T09:28:52.548Z,3.27
2018-02-22T09:31:21.097Z,3.30
2018-02-22T09:33:49.647Z,1.73
2018-02-22T09:36:18.640Z,1.70
2018-02-22T09:38:47.192Z,1.47
2018-02-22T09:41:15.741Z,1.63
2018-02-22T09:43:44.343Z,1.73
2018-02-22T09:46:12.897Z,1.70
2018-02-22T09:48:41.469Z,1.20
2018-02-22T09:51:11.025Z,1.10
2018-02-22T09:53:39.573Z,1.30
2018-02-22T09:56:08.118Z,1.53
2018-02-22T09:58:36.857Z,3.47
2018-02-22T10:01:05.401Z,8.97
2018-02-22T10:03:34.722Z,11.37
2018-02-22T10:06:03.472Z,22.57
2018-02-22T10:08:32.028Z,7.03
2018-02-22T10:11:00.588Z,10.40
2018-02-22T10:13:29.401Z,3.07
2018-02-22T10:15:57.950Z,8.80
2018-02-22T10:18:26.512Z,1.77
2018-02-22T10:20:55.888Z,1.70
2018-02-22T10:23:24.444Z,4.40
2018-02-22T10:25:53.033Z,1.60
2018-02-22T10:28:21.777Z,1.20
2018-02-22T10:30:51.092Z,1.07
2018-02-22T10:33:19.640Z,1.00
2018-02-22T10:35:49.011Z,1.97
2018-02-22T10:38:17.564Z,2.03
2018-02-22T10:40:46.133Z,3.23
2018-02-22T10:43:14.938Z,5.53
2018-02-22T10:45:43.493Z,2.10
2018-02-22T10:48:12.040Z,1.50
2018-02-22T10:50:41.412Z,2.20
2018-02-22T10:53:09.952Z,2.70
2018-02-22T10:55:38.513Z,2.87
2018-02-22T10:58:08.073Z,6.53
2018-02-22T11:00:42.091Z,2.27
2018-02-22T11:03:10.972Z,4.07
2018-02-22T11:05:39.520Z,1.80
2018-02-22T11:08:08.064Z,2.43
2018-02-22T11:10:36.941Z,2.63
2018-02-22T11:13:05.488Z,1.70
2018-02-22T11:15:34.032Z,2.47
2018-02-22T11:18:02.780Z,1.63
2018-02-22T11:20:31.328Z,1.87
2018-02-22T11:22:59.876Z,2.17
2018-02-22T11:25:28.485Z,2.40
2018-02-22T11:27:57.846Z,1.80
2018-02-22T11:30:26.392Z,2.00
2018-02-22T11:32:55.002Z,2.47
2018-02-22T11:35:23.550Z,0.80
2018-02-22T11:37:52.101Z,1.03
2018-02-22T11:40:21.784Z,0.90
2018-02-22T11:42:50.333Z,1.50
2018-02-22T11:45:18.880Z,2.57
2018-02-22T11:47:48.247Z,3.53
2018-02-22T11:50:16.823Z,1.07
2018-02-22T11:52:46.153Z,1.20
2018-02-22T11:55:14.884Z,1.00
2018-02-22T11:57:43.435Z,0.73
2018-02-22T12:00:12.773Z,0.63
2018-02-22T12:02:41.465Z,0.90
2018-02-22T12:05:10.008Z,1.07
2018-02-22T12:07:39.324Z,1.00
2018-02-22T12:10:08.085Z,1.10
2018-02-22T12:12:37.410Z,2.30
2018-02-22T12:15:05.957Z,2.03
2018-02-22T12:17:34.692Z,3.30
2018-02-22T12:20:03.240Z,1.97
2018-02-22T12:22:31.797Z,4.57
2018-02-22T12:25:00.538Z,3.53
2018-02-22T12:27:29.845Z,4.30
2018-02-22T12:29:58.393Z,7.40
2018-02-22T12:32:27.097Z,4.70
2018-02-22T12:34:56.409Z,1.83
2018-02-22T12:37:24.961Z,1.00
2018-02-22T12:39:53.924Z,1.17
2018-02-22T12:42:22.479Z,1.67
2018-02-22T12:44:52.744Z,1.43
2018-02-22T12:47:21.343Z,1.37
2018-02-22T12:49:49.904Z,2.30
2018-02-22T12:52:18.460Z,2.87
2018-02-22T12:54:47.376Z,2.20
2018-02-22T12:57:15.929Z,2.50
2018-02-22T12:59:44.484Z,2.80
2018-02-22T13:02:13.841Z,2.70
2018-02-22T13:04:42.395Z,2.63
2018-02-22T13:07:10.960Z,2.00
2018-02-22T13:09:39.802Z,2.20
2018-02-22T13:12:08.348Z,1.33
2018-02-22T13:14:36.913Z,2.83
2018-02-22T13:17:05.669Z,3.03
2018-02-22T13:19:34.225Z,2.93
2018-02-22T13:22:02.776Z,4.10
2018-02-22T13:24:31.376Z,4.37
2018-02-22T13:26:59.926Z,3.73
2018-02-22T13:29:29.242Z,3.63
2018-02-22T13:31:58.064Z,9.30
2018-02-22T13:34:35.852Z,7.63
2018-02-22T13:40:27.349Z,1.73
2018-02-22T13:42:57.121Z,2.23
2018-02-22T13:45:33.270Z,3.37
2018-02-22T13:48:02.172Z,4.60
2018-02-22T13:50:48.440Z,3.50
2018-02-22T13:53:17.128Z,3.87
2018-02-22T13:55:45.688Z,4.07
2018-02-22T13:58:15.009Z,3.50
2018-02-22T14:01:01.281Z,3.43
2018-02-22T14:03:30.599Z,3.10
2018-02-22T14:05:59.419Z,4.97
2018-02-22T14:08:46.574Z,5.37
2018-02-22T14:11:15.905Z,4.00
2018-02-22T14:13:44.456Z,5.17
2018-02-22T14:16:13.060Z,4.63
2018-02-22T14:18:42.422Z,3.30
2018-02-22T14:21:10.973Z,3.50
2018-02-22T14:23:39.685Z,4.37
2018-02-22T14:26:08.252Z,6.17
2018-02-22T14:28:37.357Z,6.73
2018-02-22T14:31:05.962Z,6.33
2018-02-22T14:33:34.529Z,6.00
2018-02-22T14:36:03.415Z,6.83
2018-02-22T14:38:32.064Z,4.67
2018-02-22T14:41:00.626Z,5.67
2018-02-22T14:43:29.945Z,5.80
2018-02-22T14:45:58.647Z,5.53
2018-02-22T14:48:27.210Z,4.67
2018-02-22T14:50:56.537Z,3.77
2018-02-22T14:53:25.346Z,3.57
2018-02-22T14:55:54.297Z,3.60
2018-02-22T14:58:22.847Z,4.80
2018-02-22T15:00:56.864Z,5.07
2018-02-22T15:03:25.417Z,3.30
2018-02-22T15:05:54.006Z,3.80
2018-02-22T15:08:22.707Z,5.93
2018-02-22T15:10:52.032Z,3.97
2018-02-22T15:13:21.359Z,4.43
2018-02-22T15:15:49.953Z,3.93
2018-02-22T15:18:18.505Z,4.60
2018-02-22T15:20:48.224Z,4.87
2018-02-22T15:23:17.868Z,5.10
2018-02-22T15:25:46.459Z,5.67
2018-02-22T15:28:15.017Z,3.83
2018-02-22T15:30:43.690Z,4.30
2018-02-22T15:33:12.248Z,4.43
2018-02-22T15:35:41.575Z,4.30
2018-02-22T15:38:10.409Z,4.37
2018-02-22T15:40:38.972Z,4.77
2018-02-22T15:43:07.563Z,4.47
2018-02-22T15:45:36.175Z,4.80
2018-02-22T15:48:04.751Z,4.60
2018-02-22T15:50:35.008Z,4.70
2018-02-22T15:53:03.621Z,4.13
2018-02-22T15:55:32.252Z,4.43
2018-02-22T15:58:02.308Z,3.97
2018-02-22T16:00:31.325Z,5.03
2018-02-22T16:02:59.876Z,4.33
2018-02-22T16:05:28.432Z,3.37
2018-02-22T16:07:57.900Z,3.10
2018-02-22T16:10:26.456Z,3.00
2018-02-22T16:12:55.018Z,2.97
2018-02-22T16:15:24.684Z,3.13
2018-02-22T16:17:53.245Z,3.90
2018-02-22T16:20:21.881Z,4.57
2018-02-22T16:22:52.374Z,6.50
2018-02-22T16:25:21.729Z,11.40
2018-02-22T16:27:50.293Z,41.97
2018-02-22T16:30:19.869Z,24.50
2018-02-22T16:32:48.429Z,14.97
2018-02-22T16:35:16.993Z,15.73
2018-02-22T16:37:45.750Z,20.50
2018-02-22T16:40:15.081Z,21.70
2018-02-22T16:42:44.089Z,14.03
2018-02-22T16:45:12.998Z,18.83
2018-02-22T16:47:41.554Z,13.67
2018-02-22T16:50:10.121Z,14.37
2018-02-22T16:52:38.739Z,16.80
2018-02-22T16:55:07.309Z,18.97
2018-02-22T16:57:35.872Z,20.00
2018-02-22T17:00:04.920Z,20.03
2018-02-22T17:02:33.510Z,21.47
2018-02-22T17:05:02.087Z,16.80
2018-02-22T17:07:30.879Z,12.90
2018-02-22T17:09:59.448Z,11.67
2018-02-22T17:12:28.060Z,35.93
2018-02-22T17:14:57.675Z,55.10
2018-02-22T17:17:44.869Z,40.27
2018-02-22T17:20:13.497Z,41.00
2018-02-22T17:22:42.074Z,56.77
2018-02-22T17:25:10.640Z,63.27
2018-02-22T17:27:44.812Z,55.00
2018-02-22T17:30:19.616Z,67.93
2018-02-22T17:32:48.227Z,57.43
2018-02-22T17:35:22.458Z,55.07
2018-02-22T17:37:57.656Z,52.43
2018-02-22T17:40:31.831Z,57.03
2018-02-22T17:43:00.469Z,53.00
2018-02-22T17:45:29.065Z,44.30
2018-02-22T17:47:58.437Z,41.40
2018-02-22T17:50:28.045Z,34.27
2018-02-22T17:52:56.936Z,30.47
2018-02-22T17:55:25.521Z,37.50
2018-02-22T17:57:54.308Z,43.17
2018-02-22T18:00:22.911Z,45.97
2018-02-22T18:02:51.526Z,57.73
2018-02-22T18:05:20.273Z,54.80
2018-02-22T18:07:49.588Z,45.70
2018-02-22T18:10:18.189Z,76.03
2018-02-22T18:12:46.832Z,44.83
2018-02-22T18:15:16.670Z,47.10
2018-02-22T18:17:45.253Z,49.27
2018-02-22T18:20:15.017Z,54.60
2018-02-22T18:22:43.613Z,45.47
2018-02-22T18:25:13.917Z,51.00
2018-02-22T18:27:42.527Z,43.33
2018-02-22T18:30:11.865Z,45.60
2018-02-22T18:32:40.450Z,38.90
2018-02-22T18:35:09.162Z,38.03
2018-02-22T18:37:42.981Z,30.53
2018-02-22T18:40:17.094Z,30.67
2018-02-22T18:42:50.342Z,33.23
2018-02-22T18:45:19.044Z,32.33
2018-02-22T18:47:47.606Z,28.80
2018-02-22T18:50:16.164Z,35.33
2018-02-22T18:52:45.696Z,37.47
2018-02-22T18:55:15.158Z,32.67
2018-02-22T18:57:43.721Z,31.10
2018-02-22T19:00:12.322Z,36.30
2018-02-22T19:02:40.897Z,44.60
2018-02-22T19:05:09.472Z,38.80
2018-02-22T19:07:38.077Z,34.07
2018-02-22T19:10:06.692Z,25.07
2018-02-22T19:12:36.013Z,29.13
2018-02-22T19:15:04.921Z,36.53
2018-02-22T19:17:34.400Z,38.90
2018-02-22T19:20:02.954Z,40.83
2018-02-22T19:22:32.340Z,33.80
2018-02-22T19:25:00.898Z,40.20
2018-02-22T19:27:29.482Z,47.40
2018-02-22T19:29:58.482Z,34.63
2018-02-22T19:32:27.044Z,26.70
2018-02-22T19:34:55.604Z,28.50
2018-02-22T19:37:24.362Z,24.93
2018-02-22T19:39:52.941Z,29.47
2018-02-22T19:42:22.296Z,38.60
2018-02-22T19:44:51.083Z,36.13
2018-02-22T19:47:19.641Z,40.17
2018-02-22T19:49:48.600Z,31.50
2018-02-22T19:52:18.163Z,37.27
2018-02-22T19:54:46.725Z,35.73
2018-02-22T19:57:15.285Z,39.77
2018-02-22T19:59:44.089Z,39.50
2018-02-22T20:02:12.651Z,36.23
2018-02-22T20:04:42.023Z,31.07
2018-02-22T20:07:10.902Z,34.40
2018-02-22T20:09:39.479Z,25.17
2018-02-22T20:12:08.054Z,22.73
2018-02-22T20:14:37.472Z,35.93
2018-02-22T20:17:06.040Z,40.27
2018-02-22T20:19:34.623Z,35.50
2018-02-22T20:22:03.412Z,34.63
2018-02-22T20:24:31.970Z,33.77
2018-02-22T20:27:00.529Z,35.73
2018-02-22T20:29:30.003Z,28.07
2018-02-22T20:31:58.570Z,29.03
2018-02-22T20:34:27.144Z,33.00
2018-02-22T20:36:55.768Z,32.90
2018-02-22T20:39:24.340Z,33.77
2018-02-22T20:41:52.900Z,34.17
2018-02-22T20:44:21.511Z,33.57
2018-02-22T20:46:50.075Z,44.90
2018-02-22T20:49:19.044Z,51.97
2018-02-22T20:51:48.477Z,43.30
2018-02-22T20:54:17.054Z,37.33
2018-02-22T20:56:45.637Z,36.60
2018-02-22T20:59:14.413Z,45.60
2018-02-22T21:01:42.968Z,29.83
2018-02-22T21:04:11.550Z,31.43
2018-02-22T21:06:40.153Z,27.83
2018-02-22T21:09:08.714Z,29.50
2018-02-22T21:11:37.277Z,39.70
2018-02-22T21:14:06.645Z,31.03
2018-02-22T21:16:35.204Z,30.87
2018-02-22T21:19:03.785Z,34.27
2018-02-22T21:21:32.397Z,45.13
2018-02-22T21:24:00.966Z,44.03
2018-02-22T21:26:29.525Z,52.53
2018-02-22T21:28:58.337Z,46.70
2018-02-22T21:31:26.897Z,40.53
2018-02-22T21:33:55.442Z,32.90
2018-02-22T21:36:24.814Z,26.03
2018-02-22T21:38:53.387Z,27.20
2018-02-22T21:41:21.986Z,31.00
2018-02-22T21:43:50.585Z,36.93
2018-02-22T21:46:19.145Z,33.17
2018-02-22T21:48:47.697Z,21.17
2018-02-22T21:51:16.306Z,19.20
2018-02-22T21:53:44.859Z,18.37
2018-02-22T21:56:13.420Z,18.17
2018-02-22T21:58:42.981Z,18.93
2018-02-22T22:01:11.536Z,19.37
2018-02-22T22:03:40.108Z,20.53
2018-02-22T22:06:08.941Z,20.57
2018-02-22T22:08:37.505Z,26.00
2018-02-22T22:11:06.060Z,22.40
2018-02-22T22:13:34.756Z,20.43
2018-02-22T22:16:03.311Z,18.27
2018-02-22T22:18:32.624Z,19.80
2018-02-22T22:21:02.281Z,20.40
2018-02-22T22:23:30.836Z,21.27
2018-02-22T22:25:59.397Z,17.07
2018-02-22T22:28:28.281Z,16.97
2018-02-22T22:30:57.598Z,16.57
2018-02-22T22:33:26.168Z,17.47
2018-02-22T22:35:55.814Z,26.23
2018-02-22T22:38:24.369Z,19.73
2018-02-22T22:40:52.925Z,20.60
2018-02-22T22:43:21.528Z,18.73
2018-02-22T22:45:50.845Z,15.23
2018-02-22T22:48:19.400Z,14.53
2018-02-22T22:50:48.781Z,14.93
2018-02-22T22:53:17.336Z,16.03
2018-02-22T22:55:45.888Z,18.83
2018-02-22T22:58:14.512Z,18.87
2018-02-22T23:00:43.060Z,18.70
2018-02-22T23:03:11.621Z,17.93
2018-02-22T23:05:40.989Z,27.13
2018-02-22T23:08:09.561Z,25.23
2018-02-22T23:10:38.112Z,25.30
2018-02-22T23:13:06.716Z,28.30
2018-02-22T23:15:35.266Z,27.97
2018-02-22T23:18:03.822Z,26.53
2018-02-22T23:20:33.194Z,16.80
2018-02-22T23:23:01.745Z,14.00
2018-02-22T23:25:30.296Z,14.03
2018-02-22T23:28:00.584Z,12.10
2018-02-22T23:30:29.138Z,11.33
2018-02-22T23:32:57.693Z,11.10
2018-02-22T23:35:27.189Z,9.00
2018-02-22T23:37:57.445Z,9.37
2018-02-22T23:40:37.016Z,8.73
2018-02-22T23:43:05.620Z,7.43
2018-02-22T23:45:34.192Z,8.33
2018-02-22T23:48:02.800Z,8.40
2018-02-22T23:50:31.429Z,8.63
2018-02-22T23:52:59.991Z,8.57
2018-02-22T23:55:28.645Z,8.23
2018-02-22T23:57:58.019Z,10.33
